Time;durP1;ratioP1;P1;durP2;ratioP2;P2;SDS_P1;SDS_P2;PMS_P1;PMS_P2;Temp;Humidity;BMP_temperature;BMP_pressure;BME280_temperature;BME280_humidity;BME280_pressure;Samples;Min_cycle;Max_cycle;Signal;HPM_P1;HPM_P2
2023/09/06 00:00:08;;;;;;;1.90;1.70;;;23.00;99.90;;;;;;5087013;28;20051;-43
2023/09/06 00:02:34;;;;;;;1.75;1.65;;;23.00;99.90;;;;;;5087566;28;20101;-43
2023/09/06 00:04:59;;;;;;;1.85;1.67;;;23.00;99.90;;;;;;5086071;28;20020;-42
2023/09/06 00:07:25;;;;;;;3.33;1.88;;;23.00;99.90;;;;;;5087358;28;20024;-44
2023/09/06 00:09:50;;;;;;;2.15;1.65;;;22.90;99.90;;;;;;5087057;28;20024;-43
2023/09/06 00:12:17;;;;;;;2.10;1.77;;;22.90;99.90;;;;;;5087080;28;20055;-43
2023/09/06 00:14:45;;;;;;;1.80;1.70;;;22.90;99.90;;;;;;5087337;28;20111;-43
2023/09/06 00:17:11;;;;;;;2.15;1.92;;;22.90;99.90;;;;;;5086536;28;20017;-43
2023/09/06 00:19:36;;;;;;;2.13;1.92;;;22.80;99.90;;;;;;5087457;28;20615;-43
2023/09/06 00:22:05;;;;;;;2.08;1.83;;;22.80;99.90;;;;;;5086976;28;20024;-43
2023/09/06 00:24:31;;;;;;;1.73;1.63;;;22.80;99.90;;;;;;5087059;28;20031;-43
2023/09/06 00:27:03;;;;;;;3.47;1.65;;;22.80;99.90;;;;;;5087480;28;20020;-43
2023/09/06 00:29:29;;;;;;;;;;;22.80;99.90;;;;;;5087227;28;20027;-43
2023/09/06 00:31:55;;;;;;;2.08;1.88;;;22.70;99.90;;;;;;5087394;28;20445;-43
2023/09/06 00:34:21;;;;;;;2.10;2.00;;;22.70;99.90;;;;;;5085640;28;20042;-43
2023/09/06 00:36:47;;;;;;;4.28;1.90;;;22.70;99.90;;;;;;5086886;28;20053;-43
2023/09/06 00:39:16;;;;;;;2.00;1.80;;;22.60;99.90;;;;;;5086095;28;20065;-43
2023/09/06 00:41:41;;;;;;;1.85;1.70;;;22.60;99.90;;;;;;5086844;28;20020;-43
2023/09/06 00:44:10;;;;;;;1.70;1.60;;;22.60;99.90;;;;;;5085851;28;20078;-42
2023/09/06 00:46:37;;;;;;;1.85;1.70;;;22.60;99.90;;;;;;5083350;28;20020;-43
2023/09/06 00:49:07;;;;;;;2.45;1.90;;;22.50;99.90;;;;;;5086742;28;20028;-42
2023/09/06 00:51:33;;;;;;;4.65;2.28;;;22.50;99.90;;;;;;5086321;28;20028;-44
2023/09/06 00:54:00;;;;;;;3.33;1.60;;;22.50;99.90;;;;;;5086452;28;20031;-42
2023/09/06 00:56:25;;;;;;;2.00;1.80;;;22.50;99.90;;;;;;5086574;28;20074;-42
2023/09/06 00:58:51;;;;;;;1.92;1.77;;;22.50;99.90;;;;;;5086228;28;20745;-43
2023/09/06 01:01:21;;;;;;;2.88;1.80;;;22.40;99.90;;;;;;5086173;28;20052;-42
2023/09/06 01:03:47;;;;;;;2.10;1.90;;;22.40;99.90;;;;;;5086849;28;20028;-44
2023/09/06 01:06:20;;;;;;;3.05;1.90;;;22.40;99.90;;;;;;5085099;28;20013;-43
2023/09/06 01:08:55;;;;;;;2.38;1.88;;;22.30;99.90;;;;;;5086770;28;20027;-43
2023/09/06 01:11:22;;;;;;;2.42;1.75;;;22.30;99.90;;;;;;5085395;28;20085;-43
2023/09/06 01:13:50;;;;;;;1.85;1.75;;;22.20;99.90;;;;;;5085505;28;20020;-42
2023/09/06 01:16:29;;;;;;;1.67;1.58;;;22.20;99.90;;;;;;5086142;28;20044;-43
2023/09/06 01:18:55;;;;;;;1.92;1.70;;;22.10;99.90;;;;;;5086444;28;20115;-42
2023/09/06 01:21:25;;;;;;;2.33;1.80;;;22.10;99.90;;;;;;5085447;28;20102;-42
2023/09/06 01:23:55;;;;;;;2.13;1.63;;;22.00;99.90;;;;;;5086025;28;20042;-43
2023/09/06 01:26:26;;;;;;;2.10;1.90;;;21.90;99.90;;;;;;5085193;28;20039;-43
2023/09/06 01:28:52;;;;;;;1.95;1.75;;;21.90;99.90;;;;;;5086463;28;20024;-43
2023/09/06 01:31:18;;;;;;;2.17;1.90;;;21.80;99.90;;;;;;5085391;28;20016;-43
2023/09/06 01:33:43;;;;;;;2.35;1.63;;;21.80;99.90;;;;;;5085739;28;20033;-43
2023/09/06 01:36:09;;;;;;;1.98;1.77;;;21.80;99.90;;;;;;5085370;28;20024;-42
2023/09/06 01:38:34;;;;;;;1.67;1.58;;;21.80;99.90;;;;;;5086080;28;20027;-42
2023/09/06 01:41:02;;;;;;;1.65;1.40;;;21.80;99.90;;;;;;5084718;28;20981;-43
2023/09/06 01:43:28;;;;;;;2.13;1.90;;;21.70;99.90;;;;;;5085921;28;20112;-43
2023/09/06 01:45:57;;;;;;;1.88;1.70;;;21.70;99.90;;;;;;5086443;28;20139;-43
2023/09/06 01:48:22;;;;;;;1.83;1.73;;;21.70;99.90;;;;;;5084828;28;20012;-43
2023/09/06 01:50:48;;;;;;;2.88;1.77;;;21.60;99.90;;;;;;5085860;28;20486;-43
2023/09/06 01:53:14;;;;;;;2.72;2.05;;;21.60;99.90;;;;;;5085194;28;20127;-43
2023/09/06 01:55:43;;;;;;;2.10;1.90;;;21.60;99.90;;;;;;5085048;28;20036;-44
2023/09/06 01:58:15;;;;;;;2.53;2.00;;;21.60;99.90;;;;;;5084830;28;20016;-44
2023/09/06 02:00:41;;;;;;;2.08;1.88;;;21.60;99.90;;;;;;5085462;28;20051;-43
2023/09/06 02:03:11;;;;;;;3.15;1.83;;;21.60;99.90;;;;;;5084665;28;20019;-43
2023/09/06 02:05:36;;;;;;;2.05;1.80;;;21.50;99.90;;;;;;5085982;28;20035;-43
2023/09/06 02:08:04;;;;;;;2.63;1.88;;;21.50;99.90;;;;;;5084102;28;20020;-43
2023/09/06 02:10:30;;;;;;;2.10;1.90;;;21.50;99.90;;;;;;5085944;28;20600;-43
2023/09/06 02:12:56;;;;;;;2.13;1.80;;;21.50;99.90;;;;;;5085084;28;20020;-44
2023/09/06 02:15:23;;;;;;;2.72;2.05;;;21.50;99.90;;;;;;5084234;28;20039;-42
2023/09/06 02:17:48;;;;;;;4.95;1.98;;;21.50;99.90;;;;;;5085390;28;20375;-43
2023/09/06 02:20:21;;;;;;;2.00;1.80;;;21.50;99.90;;;;;;5084680;28;20028;-43
2023/09/06 02:23:00;;;;;;;2.03;1.83;;;21.50;99.90;;;;;;5084720;28;20020;-43
2023/09/06 02:25:30;;;;;;;1.75;1.60;;;21.50;99.90;;;;;;5074847;28;20483;-43
2023/09/06 02:28:04;;;;;;;2.67;2.00;;;21.50;99.90;;;;;;5085138;28;20073;-42
2023/09/06 02:30:29;;;;;;;2.20;1.88;;;21.50;99.90;;;;;;5073549;28;20392;-43
2023/09/06 02:32:56;;;;;;;1.70;1.60;;;21.50;99.90;;;;;;5084921;28;20028;-43
2023/09/06 02:35:21;;;;;;;2.85;2.10;;;21.40;99.90;;;;;;5084397;28;20032;-44
2023/09/06 02:37:47;;;;;;;2.22;1.90;;;21.40;99.90;;;;;;5084315;28;20023;-42
2023/09/06 02:40:13;;;;;;;2.13;1.90;;;21.40;99.90;;;;;;5084740;28;20019;-42
2023/09/06 02:42:44;;;;;;;2.15;1.60;;;21.40;99.90;;;;;;5084936;28;20132;-42
2023/09/06 02:45:11;;;;;;;2.53;1.70;;;21.40;99.90;;;;;;5083349;28;20032;-42
2023/09/06 02:47:48;;;;;;;3.85;2.53;;;21.40;99.90;;;;;;5085503;28;20123;-42
2023/09/06 02:50:17;;;;;;;2.42;2.22;;;21.40;99.90;;;;;;5083405;28;20113;-42
2023/09/06 02:52:46;;;;;;;2.40;2.15;;;21.30;99.90;;;;;;5085245;28;20111;-42
2023/09/06 02:55:13;;;;;;;2.25;1.90;;;21.40;99.90;;;;;;5084127;28;20040;-42
2023/09/06 02:57:40;;;;;;;2.17;1.98;;;21.30;99.90;;;;;;5084139;28;20076;-43
2023/09/06 03:00:24;;;;;;;1.85;1.75;;;21.30;99.90;;;;;;5083778;28;20071;-42
2023/09/06 03:03:15;;;;;;;1.92;1.80;;;21.30;99.90;;;;;;5087841;28;20530;-43
2023/09/06 03:05:42;;;;;;;1.90;1.70;;;21.20;99.90;;;;;;5088649;28;20020;-43
2023/09/06 03:08:08;;;;;;;2.15;2.00;;;21.20;99.90;;;;;;5088234;28;20580;-43
2023/09/06 03:10:35;;;;;;;3.08;1.70;;;21.20;99.90;;;;;;5088792;28;20082;-43
2023/09/06 03:13:01;;;;;;;1.85;1.75;;;21.20;99.90;;;;;;5087994;28;20118;-44
2023/09/06 03:15:34;;;;;;;2.53;2.00;;;21.10;99.90;;;;;;5088663;28;20134;-44
2023/09/06 03:18:04;;;;;;;3.25;1.90;;;21.10;99.90;;;;;;5088259;28;20390;-44
2023/09/06 03:20:34;;;;;;;2.15;1.92;;;21.10;99.90;;;;;;5088067;28;20096;-44
2023/09/06 03:23:16;;;;;;;2.53;2.30;;;21.10;99.90;;;;;;5088138;28;20059;-44
2023/09/06 03:25:47;;;;;;;;;;;21.10;99.90;;;;;;5088080;28;20032;-46
2023/09/06 03:28:13;;;;;;;2.10;1.90;;;21.10;99.90;;;;;;5088488;28;19908;-44
2023/09/06 03:30:41;;;;;;;2.00;1.80;;;21.00;99.90;;;;;;5088854;28;20032;-44
2023/09/06 03:33:07;;;;;;;2.10;1.85;;;21.00;99.90;;;;;;5087145;28;20081;-44
2023/09/06 03:35:33;;;;;;;3.33;2.10;;;21.00;99.90;;;;;;5087951;28;20479;-44
2023/09/06 03:37:59;;;;;;;2.35;2.15;;;21.00;99.90;;;;;;5088570;28;20610;-44
2023/09/06 03:40:35;;;;;;;2.33;2.13;;;21.00;99.90;;;;;;5087734;28;20032;-44
2023/09/06 03:43:05;;;;;;;2.15;1.95;;;21.00;99.90;;;;;;5077331;28;20719;-42
2023/09/06 03:45:31;;;;;;;2.22;2.03;;;21.00;99.90;;;;;;5088229;28;20050;-42
2023/09/06 03:47:57;;;;;;;2.65;2.20;;;20.90;99.90;;;;;;5087070;28;20051;-42
2023/09/06 03:50:26;;;;;;;2.10;1.90;;;20.90;99.90;;;;;;5087674;28;20847;-42
2023/09/06 03:52:51;;;;;;;2.25;2.05;;;20.90;99.90;;;;;;5084711;28;20020;-42
2023/09/06 03:55:20;;;;;;;2.17;2.00;;;20.90;99.90;;;;;;5086410;28;20100;-43
2023/09/06 03:57:49;;;;;;;2.33;2.00;;;20.90;99.90;;;;;;5087708;28;20017;-42
2023/09/06 04:00:25;;;;;;;2.72;2.45;;;20.90;99.90;;;;;;5087492;28;20135;-43
2023/09/06 04:02:59;;;;;;;2.08;1.83;;;20.90;99.90;;;;;;5087476;28;20028;-42
2023/09/06 04:05:28;;;;;;;3.67;2.25;;;20.80;99.90;;;;;;5088043;28;20601;-42
2023/09/06 04:07:58;;;;;;;1.95;1.75;;;20.80;99.90;;;;;;5087271;28;20027;-42
2023/09/06 04:10:27;;;;;;;2.20;2.00;;;20.80;99.90;;;;;;5087343;28;20767;-43
2023/09/06 04:12:55;;;;;;;2.00;1.90;;;20.70;99.90;;;;;;5086723;28;20028;-43
2023/09/06 04:15:24;;;;;;;1.85;1.70;;;20.70;99.90;;;;;;5066007;28;20068;-43
2023/09/06 04:17:59;;;;;;;1.92;1.83;;;20.70;99.90;;;;;;5082605;28;20012;-43
2023/09/06 04:20:27;;;;;;;2.28;2.08;;;20.60;99.90;;;;;;5087757;28;20115;-43
2023/09/06 04:22:54;;;;;;;2.30;2.08;;;20.60;99.90;;;;;;5086802;28;20979;-43
2023/09/06 04:25:22;;;;;;;2.30;1.83;;;20.60;99.90;;;;;;5087891;28;20093;-43
2023/09/06 04:27:54;;;;;;;2.65;1.90;;;20.60;99.90;;;;;;5088317;28;20016;-43
2023/09/06 04:30:21;;;;;;;3.47;2.03;;;20.60;99.90;;;;;;5087032;28;20024;-44
2023/09/06 04:32:46;;;;;;;2.47;1.90;;;20.50;99.90;;;;;;5087047;28;20062;-42
2023/09/06 04:35:18;;;;;;;2.17;1.98;;;20.50;99.90;;;;;;5086909;28;20610;-43
2023/09/06 04:37:47;;;;;;;3.23;2.47;;;20.40;99.90;;;;;;5086283;28;20028;-43
2023/09/06 04:40:13;;;;;;;3.17;2.30;;;20.40;99.90;;;;;;5086352;28;20910;-43
2023/09/06 04:42:42;;;;;;;2.33;2.13;;;20.40;99.90;;;;;;5086525;28;20020;-43
2023/09/06 04:45:11;;;;;;;2.40;2.20;;;20.30;99.90;;;;;;5086350;28;20141;-43
2023/09/06 04:47:42;;;;;;;2.15;1.90;;;20.30;99.90;;;;;;5086906;28;20016;-44
2023/09/06 04:50:08;;;;;;;2.80;2.15;;;20.30;99.90;;;;;;5085999;28;20039;-42
2023/09/06 04:52:43;;;;;;;3.20;2.38;;;20.30;99.90;;;;;;5087117;28;20052;-42
2023/09/06 04:55:12;;;;;;;3.70;2.53;;;20.20;99.90;;;;;;5086029;28;20032;-42
2023/09/06 04:57:45;;;;;;;2.33;1.90;;;20.20;99.90;;;;;;5086312;28;20065;-42
2023/09/06 05:00:23;;;;;;;2.45;2.25;;;20.20;99.90;;;;;;5083224;28;20205;-43
2023/09/06 05:02:49;;;;;;;2.20;2.00;;;20.20;99.90;;;;;;5086652;28;20352;-45
2023/09/06 05:05:15;;;;;;;2.25;2.05;;;20.20;99.90;;;;;;5070754;28;20131;-41
2023/09/06 05:07:41;;;;;;;3.33;1.92;;;20.20;99.90;;;;;;5086590;28;20577;-42
2023/09/06 05:10:09;;;;;;;2.30;2.10;;;20.20;99.90;;;;;;5086029;28;20024;-44
2023/09/06 05:12:36;;;;;;;2.63;1.98;;;20.20;99.90;;;;;;5086236;28;20028;-42
2023/09/06 05:15:02;;;;;;;2.72;2.38;;;20.10;99.90;;;;;;5085018;28;20520;-42
2023/09/06 05:17:32;;;;;;;2.55;2.35;;;20.10;99.90;;;;;;5086415;28;20020;-43
2023/09/06 05:20:28;;;;;;;2.40;2.20;;;20.10;99.90;;;;;;5085459;28;20032;-43
2023/09/06 05:22:55;;;;;;;2.47;2.20;;;20.10;99.90;;;;;;5066001;28;20060;-43
2023/09/06 05:25:21;;;;;;;2.80;2.28;;;20.10;99.90;;;;;;5080891;28;20028;-43
2023/09/06 05:27:47;;;;;;;2.42;2.17;;;20.10;99.90;;;;;;5085848;28;21581;-42
2023/09/06 05:30:14;;;;;;;3.53;1.90;;;20.10;99.90;;;;;;5085436;28;20069;-44
2023/09/06 05:32:42;;;;;;;3.78;2.20;;;20.10;99.90;;;;;;5085574;28;20043;-43
2023/09/06 05:35:08;;;;;;;2.60;2.20;;;20.10;99.90;;;;;;5082211;28;20036;-44
2023/09/06 05:37:34;;;;;;;2.55;2.20;;;20.10;99.90;;;;;;5085607;28;20020;-43
2023/09/06 05:40:03;;;;;;;3.40;2.70;;;20.10;99.90;;;;;;5083983;28;20020;-43
2023/09/06 05:42:29;;;;;;;2.60;2.38;;;20.10;99.90;;;;;;5085298;28;20069;-43
2023/09/06 05:44:56;;;;;;;3.30;2.75;;;20.20;99.90;;;;;;5084967;28;20024;-42
2023/09/06 05:47:21;;;;;;;4.43;2.90;;;20.20;99.90;;;;;;5083882;28;20396;-43
2023/09/06 05:49:51;;;;;;;2.53;2.33;;;20.20;99.90;;;;;;5084869;28;20027;-44
2023/09/06 05:52:16;;;;;;;3.17;2.30;;;20.20;99.90;;;;;;5073459;28;20269;-44
2023/09/06 05:54:42;;;;;;;3.50;2.85;;;20.30;99.90;;;;;;5083963;28;20100;-44
2023/09/06 05:57:08;;;;;;;2.90;2.50;;;20.30;99.90;;;;;;5083925;28;20031;-43
2023/09/06 05:59:33;;;;;;;3.15;2.35;;;20.30;99.90;;;;;;5085117;28;20035;-43
2023/09/06 06:01:59;;;;;;;7.30;3.10;;;20.30;99.90;;;;;;5084100;28;20045;-43
2023/09/06 06:04:25;;;;;;;3.03;2.70;;;20.30;99.90;;;;;;5084757;28;20021;-43
2023/09/06 06:06:51;;;;;;;5.00;2.50;;;20.30;99.90;;;;;;5084269;28;20042;-44
2023/09/06 06:09:24;;;;;;;2.95;2.63;;;20.30;99.90;;;;;;5083998;28;20380;-44
2023/09/06 06:11:53;;;;;;;3.63;2.53;;;20.30;99.90;;;;;;5084744;28;20525;-44
2023/09/06 06:14:19;;;;;;;3.10;2.80;;;20.30;99.90;;;;;;5063593;28;20025;-43
2023/09/06 06:16:47;;;;;;;3.80;2.40;;;20.30;99.90;;;;;;5079815;28;20031;-43
2023/09/06 06:19:13;;;;;;;3.17;2.40;;;20.30;99.90;;;;;;5084399;28;20535;-43
2023/09/06 06:21:39;;;;;;;3.17;2.38;;;20.30;99.90;;;;;;5084349;28;20044;-43
2023/09/06 06:24:08;;;;;;;2.78;2.58;;;20.30;99.90;;;;;;5084571;28;20062;-43
2023/09/06 06:26:34;;;;;;;3.45;2.30;;;20.40;99.90;;;;;;5085070;28;20012;-43
2023/09/06 06:29:07;;;;;;;3.85;2.50;;;20.40;99.90;;;;;;5083762;28;20672;-43
2023/09/06 06:31:32;;;;;;;3.13;2.65;;;20.40;99.90;;;;;;5084795;28;20032;-43
2023/09/06 06:33:59;;;;;;;3.08;2.40;;;20.40;99.90;;;;;;5084256;28;20024;-43
2023/09/06 06:36:28;;;;;;;2.60;2.38;;;20.40;99.90;;;;;;5082987;28;20036;-43
2023/09/06 06:38:54;;;;;;;2.53;2.30;;;20.40;99.90;;;;;;5084439;28;20459;-43
2023/09/06 06:41:22;;;;;;;3.22;2.28;;;20.40;99.90;;;;;;5083391;28;20478;-43
2023/09/06 06:43:54;;;;;;;2.17;1.98;;;20.40;99.90;;;;;;5083622;28;20386;-42
2023/09/06 06:46:39;;;;;;;2.25;2.00;;;20.40;99.90;;;;;;5083586;28;20028;-43
2023/09/06 06:49:07;;;;;;;2.55;2.22;;;20.50;99.90;;;;;;5083143;28;20038;-44
2023/09/06 06:51:38;;;;;;;2.42;2.20;;;20.60;99.90;;;;;;5084629;28;20027;-44
2023/09/06 06:54:08;;;;;;;3.22;2.25;;;20.60;99.90;;;;;;5084863;28;20090;-44
2023/09/06 06:56:35;;;;;;;2.80;2.53;;;20.60;99.90;;;;;;5082731;28;20125;-44
2023/09/06 06:59:02;;;;;;;2.50;2.20;;;20.60;99.90;;;;;;5084183;28;20020;-43
2023/09/06 07:01:28;;;;;;;2.80;2.05;;;20.60;99.90;;;;;;5084299;28;20063;-43
2023/09/06 07:03:54;;;;;;;2.38;1.80;;;20.70;99.90;;;;;;5084121;28;20024;-42
2023/09/06 07:06:21;;;;;;;3.08;2.25;;;20.70;99.90;;;;;;5072175;28;20035;-43
2023/09/06 07:08:47;;;;;;;2.30;2.10;;;20.70;99.90;;;;;;5081159;28;20059;-44
2023/09/06 07:11:13;;;;;;;3.47;2.03;;;20.80;99.90;;;;;;5083322;28;20483;-43
2023/09/06 07:13:38;;;;;;;2.33;2.08;;;20.80;99.90;;;;;;5084853;28;20040;-43
2023/09/06 07:16:10;;;;;;;2.58;1.90;;;20.80;99.90;;;;;;5083915;28;20048;-43
2023/09/06 07:18:36;;;;;;;2.90;2.10;;;20.80;99.90;;;;;;5083682;28;20047;-43
2023/09/06 07:21:01;;;;;;;2.20;2.00;;;20.90;99.90;;;;;;5083938;28;20491;-42
2023/09/06 07:23:27;;;;;;;1.95;1.75;;;20.90;99.90;;;;;;5084307;28;20483;-43
2023/09/06 07:25:53;;;;;;;2.22;1.60;;;21.00;99.90;;;;;;5083158;28;20616;-43
2023/09/06 07:28:22;;;;;;;1.90;1.80;;;21.00;99.90;;;;;;5084066;28;20025;-44
2023/09/06 07:30:48;;;;;;;1.80;1.60;;;21.00;99.90;;;;;;5084562;28;20028;-43
2023/09/06 07:33:13;;;;;;;2.00;1.80;;;21.10;99.90;;;;;;5083455;28;20022;-43
2023/09/06 07:35:41;;;;;;;2.28;1.63;;;21.10;99.90;;;;;;5082221;28;20040;-43
2023/09/06 07:38:10;;;;;;;1.50;1.40;;;21.10;99.90;;;;;;5083294;28;20028;-43
2023/09/06 07:40:38;;;;;;;1.83;1.70;;;21.20;99.90;;;;;;5083222;28;20534;-43
2023/09/06 07:43:03;;;;;;;2.83;1.50;;;21.20;99.90;;;;;;5084310;28;20032;-44
2023/09/06 07:45:31;;;;;;;2.20;1.67;;;21.30;99.90;;;;;;5083973;28;20526;-43
2023/09/06 07:47:57;;;;;;;1.73;1.60;;;21.30;99.90;;;;;;5084886;28;20020;-43
2023/09/06 07:50:22;;;;;;;2.28;1.70;;;21.40;99.90;;;;;;5087440;28;20084;-43
2023/09/06 07:52:48;;;;;;;1.50;1.40;;;21.40;99.90;;;;;;5087216;28;20028;-43
2023/09/06 07:55:14;;;;;;;1.65;1.55;;;21.50;99.90;;;;;;5086329;28;20040;-43
2023/09/06 07:57:39;;;;;;;4.43;1.70;;;21.50;99.90;;;;;;5088778;28;20032;-44
2023/09/06 08:00:06;;;;;;;1.88;1.75;;;21.60;99.90;;;;;;5086408;28;20624;-44
2023/09/06 08:02:34;;;;;;;1.48;1.38;;;21.60;99.90;;;;;;5087191;28;20025;-43
2023/09/06 08:05:00;;;;;;;1.70;1.60;;;21.70;99.90;;;;;;5087252;28;20771;-43
2023/09/06 08:07:26;;;;;;;1.58;1.48;;;21.70;99.90;;;;;;5087085;28;20028;-43
2023/09/06 08:09:51;;;;;;;1.90;1.52;;;21.80;99.90;;;;;;5087324;28;20409;-42
2023/09/06 08:12:17;;;;;;;1.55;1.45;;;21.80;99.90;;;;;;5087366;28;20507;-42
2023/09/06 08:14:43;;;;;;;1.58;1.40;;;21.90;99.90;;;;;;5086349;28;20046;-43
2023/09/06 08:17:09;;;;;;;1.50;1.40;;;22.00;99.90;;;;;;5086902;28;20021;-43
2023/09/06 08:19:35;;;;;;;1.75;1.60;;;22.00;99.90;;;;;;5087559;28;20111;-44
2023/09/06 08:22:01;;;;;;;1.50;1.40;;;22.10;99.90;;;;;;5086145;28;20027;-44
2023/09/06 08:24:26;;;;;;;1.92;1.23;;;22.10;99.90;;;;;;5087682;28;20059;-42
2023/09/06 08:26:52;;;;;;;3.60;1.42;;;22.20;99.90;;;;;;5087248;28;20795;-43
2023/09/06 08:29:17;;;;;;;2.10;1.65;;;22.30;99.90;;;;;;5086718;28;20115;-42
2023/09/06 08:31:43;;;;;;;1.58;1.20;;;22.30;99.90;;;;;;5087224;28;20115;-43
2023/09/06 08:34:12;;;;;;;2.58;1.67;;;22.30;99.90;;;;;;5087147;28;20040;-43
2023/09/06 08:36:38;;;;;;;3.58;1.70;;;22.30;99.90;;;;;;5086644;28;20042;-43
2023/09/06 08:39:07;;;;;;;3.22;1.73;;;22.40;99.90;;;;;;5086832;28;20016;-44
2023/09/06 08:41:33;;;;;;;2.40;1.67;;;22.50;99.90;;;;;;5087859;28;20048;-42
2023/09/06 08:44:06;;;;;;;2.28;1.60;;;22.50;99.90;;;;;;5086549;28;20119;-43
2023/09/06 08:46:37;;;;;;;3.38;2.00;;;22.50;99.90;;;;;;5086808;28;20705;-42
2023/09/06 08:49:03;;;;;;;2.35;1.88;;;22.60;99.90;;;;;;5084114;28;20032;-43
2023/09/06 08:51:35;;;;;;;2.20;1.90;;;22.60;99.90;;;;;;5086572;28;20031;-43
2023/09/06 08:54:05;;;;;;;3.15;1.77;;;22.60;99.90;;;;;;5086649;28;20117;-45
2023/09/06 08:56:32;;;;;;;1.50;1.40;;;22.60;99.90;;;;;;5086707;28;20078;-43
2023/09/06 08:58:59;;;;;;;2.55;1.70;;;22.60;99.90;;;;;;5086638;28;20028;-44
2023/09/06 09:01:28;;;;;;;2.08;1.88;;;22.70;99.90;;;;;;5086450;28;20051;-44
2023/09/06 09:03:53;;;;;;;2.08;1.80;;;22.70;99.90;;;;;;5086181;28;20094;-43
2023/09/06 09:06:20;;;;;;;1.70;1.50;;;22.80;99.90;;;;;;5086236;28;20590;-43
2023/09/06 09:08:46;;;;;;;2.80;1.50;;;22.80;99.90;;;;;;5086391;28;20024;-43
2023/09/06 09:11:18;;;;;;;1.88;1.70;;;22.90;99.90;;;;;;5085636;28;20059;-43
2023/09/06 09:13:45;;;;;;;2.33;2.13;;;22.90;99.90;;;;;;5086026;28;20036;-43
2023/09/06 09:16:13;;;;;;;2.00;1.63;;;23.00;99.90;;;;;;5085761;28;20036;-43
2023/09/06 09:18:40;;;;;;;2.05;1.85;;;23.00;99.90;;;;;;5085480;28;20032;-43
2023/09/06 09:21:10;;;;;;;1.70;1.60;;;23.00;99.90;;;;;;5085599;28;20036;-44
2023/09/06 09:23:57;;;;;;;1.90;1.70;;;23.10;99.90;;;;;;5086021;28;20061;-43
2023/09/06 09:26:23;;;;;;;1.50;1.40;;;23.20;99.90;;;;;;5085143;28;20489;-43
2023/09/06 09:28:49;;;;;;;1.42;1.33;;;23.30;99.90;;;;;;5086072;28;20027;-43
2023/09/06 09:31:18;;;;;;;2.40;1.33;;;23.30;99.90;;;;;;5084610;28;20114;-43
2023/09/06 09:33:58;;;;;;;1.85;1.35;;;23.30;99.90;;;;;;5086092;28;20491;-43
2023/09/06 09:36:28;;;;;;;2.28;1.70;;;23.40;99.90;;;;;;5086158;28;20068;-43
2023/09/06 09:38:54;;;;;;;3.13;1.90;;;23.40;99.90;;;;;;5085284;28;20062;-43
2023/09/06 09:41:19;;;;;;;2.08;1.70;;;23.40;99.90;;;;;;5085470;28;20089;-43
2023/09/06 09:43:45;;;;;;;2.42;1.90;;;23.50;99.90;;;;;;5085739;28;20468;-43
2023/09/06 09:46:11;;;;;;;2.35;1.70;;;23.50;99.90;;;;;;5084382;28;20051;-42
2023/09/06 09:48:38;;;;;;;2.25;2.05;;;23.60;99.90;;;;;;5086135;28;20153;-44
2023/09/06 09:51:07;;;;;;;3.05;1.98;;;23.60;99.90;;;;;;5085635;28;20024;-42
2023/09/06 09:53:33;;;;;;;2.50;2.30;;;23.60;99.90;;;;;;5085264;28;20023;-43
2023/09/06 09:56:06;;;;;;;4.07;2.60;;;23.60;99.90;;;;;;5085464;28;20747;-43
2023/09/06 09:58:36;;;;;;;3.40;2.45;;;23.60;99.90;;;;;;5085582;28;20051;-44
2023/09/06 10:01:05;;;;;;;3.13;2.55;;;23.60;99.90;;;;;;5084858;28;20056;-42
2023/09/06 10:03:35;;;;;;;3.63;3.20;;;23.70;99.90;;;;;;5085081;28;20566;-43
2023/09/06 10:06:03;;;;;;;4.13;2.47;;;23.70;99.90;;;;;;5084903;28;20087;-43
2023/09/06 10:08:32;;;;;;;2.92;2.65;;;23.80;99.90;;;;;;5084609;28;20023;-44
2023/09/06 10:10:57;;;;;;;2.92;2.60;;;23.80;99.90;;;;;;5085334;28;20036;-43
2023/09/06 10:13:26;;;;;;;2.50;2.22;;;23.80;99.90;;;;;;5084579;28;20012;-43
2023/09/06 10:15:54;;;;;;;2.58;2.28;;;23.90;99.90;;;;;;5085790;28;20036;-43
2023/09/06 10:18:20;;;;;;;2.55;2.22;;;23.90;99.90;;;;;;5085226;28;20810;-43
2023/09/06 10:20:46;;;;;;;3.55;1.90;;;23.90;99.90;;;;;;5084706;28;20020;-43
2023/09/06 10:23:12;;;;;;;1.67;1.58;;;24.00;99.90;;;;;;5085250;28;20055;-43
2023/09/06 10:25:47;;;;;;;3.45;1.75;;;24.00;99.90;;;;;;5085608;28;20055;-43
2023/09/06 10:28:16;;;;;;;2.40;1.75;;;24.10;99.90;;;;;;5082273;28;20032;-43
2023/09/06 10:30:50;;;;;;;1.75;1.60;;;24.10;99.90;;;;;;5084520;28;20052;-43
2023/09/06 10:33:40;;;;;;;1.75;1.65;;;24.20;99.90;;;;;;5083234;28;20050;-43
2023/09/06 10:36:11;;;;;;;1.77;1.42;;;24.20;99.90;;;;;;5083222;28;20657;-43
2023/09/06 10:39:11;;;;;;;1.55;1.45;;;24.30;99.90;;;;;;5084686;28;20051;-43
2023/09/06 10:42:11;;;;;;;2.33;1.88;;;24.30;99.90;;;;;;5079268;28;20476;-43
2023/09/06 10:44:55;;;;;;;2.47;1.55;;;24.40;99.90;;;;;;5084297;28;20043;-43
2023/09/06 10:47:24;;;;;;;1.48;1.38;;;24.40;99.90;;;;;;5074542;28;20042;-42
2023/09/06 10:50:07;;;;;;;1.80;1.55;;;24.40;99.90;;;;;;5083341;28;20089;-44
2023/09/06 10:53:01;;;;;;;1.65;1.52;;;24.40;99.90;;;;;;5074839;28;20074;-43
2023/09/06 10:55:30;;;;;;;2.00;1.60;;;24.40;99.90;;;;;;5082711;28;20047;-42
2023/09/06 10:57:58;;;;;;;1.90;1.60;;;24.50;99.90;;;;;;5084152;28;20027;-42
2023/09/06 11:00:27;;;;;;;1.80;1.70;;;24.50;99.90;;;;;;5083653;28;20095;-43
2023/09/06 11:03:04;;;;;;;4.07;1.67;;;24.60;99.90;;;;;;5083377;28;20433;-42
2023/09/06 11:05:35;;;;;;;1.80;1.70;;;24.60;99.90;;;;;;5084084;28;20487;-43
2023/09/06 11:08:01;;;;;;;2.05;1.63;;;24.70;99.90;;;;;;5083674;28;20024;-43
2023/09/06 11:10:27;;;;;;;1.70;1.60;;;24.70;99.90;;;;;;5083592;28;20071;-44
2023/09/06 11:12:57;;;;;;;2.25;2.00;;;24.70;99.90;;;;;;5084793;28;20029;-43
2023/09/06 11:15:24;;;;;;;2.67;1.88;;;24.80;99.90;;;;;;5084527;28;20086;-43
2023/09/06 11:17:58;;;;;;;1.92;1.73;;;24.80;99.90;;;;;;5083909;28;20107;-44
2023/09/06 11:20:24;;;;;;;1.65;1.55;;;24.80;99.90;;;;;;5084522;28;20480;-44
2023/09/06 11:22:55;;;;;;;1.85;1.70;;;24.90;99.90;;;;;;5085713;28;20031;-43
2023/09/06 11:25:23;;;;;;;1.90;1.50;;;25.00;99.90;;;;;;5087640;28;20031;-43
2023/09/06 11:27:50;;;;;;;2.10;1.80;;;25.00;99.90;;;;;;5088053;28;20038;-45
2023/09/06 11:30:21;;;;;;;2.95;1.90;;;25.10;99.90;;;;;;5087976;28;20031;-43
2023/09/06 11:32:51;;;;;;;1.85;1.67;;;25.10;99.90;;;;;;5087652;28;20101;-43
2023/09/06 11:35:26;;;;;;;2.33;1.77;;;25.20;99.90;;;;;;5088348;28;20162;-43
2023/09/06 11:37:52;;;;;;;2.08;1.70;;;25.30;99.90;;;;;;5087768;28;20041;-44
2023/09/06 11:40:20;;;;;;;2.40;2.00;;;25.30;99.90;;;;;;5087930;28;20024;-43
2023/09/06 11:42:55;;;;;;;1.65;1.55;;;25.30;99.90;;;;;;5089183;28;20224;-44
2023/09/06 11:45:25;;;;;;;2.47;1.80;;;25.40;99.90;;;;;;5067885;28;20032;-43
2023/09/06 11:47:56;;;;;;;1.88;1.67;;;25.50;99.90;;;;;;5082832;28;20613;-43
2023/09/06 11:50:23;;;;;;;2.20;2.00;;;25.60;99.90;;;;;;5088114;28;20131;-43
2023/09/06 11:52:53;;;;;;;1.70;1.60;;;25.70;99.90;;;;;;5087973;28;20040;-43
2023/09/06 11:55:20;;;;;;;2.67;1.80;;;25.70;99.90;;;;;;5087736;28;20475;-44
2023/09/06 11:57:51;;;;;;;1.80;1.70;;;25.80;99.90;;;;;;5088571;28;20353;-44
2023/09/06 12:00:25;;;;;;;2.13;1.93;;;25.80;99.90;;;;;;5087220;28;20052;-45
2023/09/06 12:02:51;;;;;;;2.95;1.80;;;25.80;99.90;;;;;;5088436;28;20024;-43
2023/09/06 12:05:23;;;;;;;1.92;1.83;;;25.90;99.90;;;;;;5087475;28;20428;-43
2023/09/06 12:07:49;;;;;;;3.75;1.88;;;25.90;99.90;;;;;;5087028;28;20636;-44
2023/09/06 12:10:18;;;;;;;1.70;1.60;;;25.90;99.90;;;;;;5087729;28;20025;-44
2023/09/06 12:12:43;;;;;;;2.72;1.92;;;26.00;99.90;;;;;;5087566;28;20027;-44
2023/09/06 12:15:14;;;;;;;3.80;2.10;;;26.00;99.80;;;;;;5086262;28;20044;-43
2023/09/06 12:17:45;;;;;;;2.05;1.80;;;26.00;99.60;;;;;;5087530;28;20031;-42
2023/09/06 12:20:25;;;;;;;1.80;1.70;;;26.00;99.60;;;;;;5085867;28;20048;-43
2023/09/06 12:22:52;;;;;;;2.08;1.88;;;26.00;99.50;;;;;;5086548;28;20028;-44
2023/09/06 12:25:19;;;;;;;2.25;1.75;;;26.00;99.50;;;;;;5087061;28;20115;-44
2023/09/06 12:28:05;;;;;;;1.67;1.48;;;26.00;99.30;;;;;;5086251;28;20483;-44
2023/09/06 12:30:30;;;;;;;1.70;1.50;;;26.00;99.30;;;;;;5086753;28;20085;-43
2023/09/06 12:32:56;;;;;;;1.70;1.40;;;26.00;99.20;;;;;;5087593;28;20032;-43
2023/09/06 12:35:22;;;;;;;1.77;1.50;;;26.10;99.10;;;;;;5083300;28;20097;-44
2023/09/06 12:37:50;;;;;;;3.22;1.77;;;26.20;98.90;;;;;;5085647;28;20837;-43
2023/09/06 12:40:20;;;;;;;2.92;1.60;;;26.20;98.70;;;;;;5086968;28;20032;-43
2023/09/06 12:42:47;;;;;;;3.60;2.00;;;26.30;98.60;;;;;;5087557;28;20035;-43
2023/09/06 12:45:32;;;;;;;2.22;1.98;;;26.40;98.50;;;;;;5086731;28;20028;-42
2023/09/06 12:48:05;;;;;;;2.42;1.77;;;26.40;98.30;;;;;;5086645;28;20024;-43
2023/09/06 12:50:31;;;;;;;1.70;1.60;;;26.40;98.20;;;;;;5086951;28;20502;-43
2023/09/06 12:52:56;;;;;;;2.35;1.88;;;26.40;98.20;;;;;;5087109;28;20024;-43
2023/09/06 12:55:22;;;;;;;2.20;1.50;;;26.40;98.20;;;;;;5085761;28;20140;-43